Terminal Aerodrome Forecast
Issued by NWS

Home | Current Version | Previous Version | Text Only | Print | Product List | Glossary On
Versions: 1 2 3 4 5 6 7 8 9 10 11 12 13 14 15 16 17 18 19 20 21
000
FTUS43 KGRR 210440 AAA
TAFLAN
TAF AMD
KLAN 210440Z 2105/2124 VRB03KT 1/4SM FG VV002
     FM211400 15005KT 1SM BR OVC003
     FM211700 17007KT P6SM BKN020
     FM212100 15009KT 6SM HZ BKN250=

USA.gov is the U.S. government's official web portal to all federal, state and local government web resources and services.